x

9440910 - Toke Point, Wa (tokw1) Weather Station

1:54 - Thu 5th May 2016 All times are PDT. -7 hours from GMT.

  • Wind
    7mph, 9mph gusts
  • Sea Temp 56°f
  • Ar Temp 50°f
  • Sea Pressure 1017.5mb
  • 9440910 - Toke Point, Wa
  • 9440910 - Toke Point, Wa

More Historic Weather Station data

Upgrade to MSW Pro to gain access to the past 30 days of data for over 8000 Wavebouys and Weather Stations around the globe.

Join Pro

Comparision Forecast

View Surf forecast
   
Qui 05/05 1:54 7 9 mph 1017.5mb 56f 50f
1:48 7 10 mph 1017.6mb 56f 51f
1:42 6 8 mph 1017.6mb 56f 51f
1:36 5 8 mph 1017.7mb 56f 51f
1:30 5 6 mph 1017.7mb 56f 51f
1:24 5 7 mph 1017.8mb 56f 51f
1:18 6 7 mph 1017.8mb 56f 51f
1:12 5 8 mph 1017.9mb 56f 51f
1:06 6 8 mph 1017.9mb 56f 51f
1:00  -  mph 1017.9mb 56f 51f
12:54  -  mph 1017.9mb 56f 51f
12:48 5 7 mph 1017.9mb 56f 51f
12:42 6 7 mph 1018mb 56f 51f
12:36 5 6 mph 1018mb 56f 51f
12:30 5 7 mph 1018mb 56f 51f
12:24 6 8 mph 1017.9mb 56f 51f
12:18 6 8 mph 1017.9mb 56f 51f
12:12 6 8 mph 1017.9mb 56f 51f
12:06 2 6 mph 1017.9mb 56f 51f
12:00 3 5 mph 1018mb 56f 51f
Qua 05/04 11:54 6 9 mph 1017.9mb 56f 51f
11:48 6 9 mph 1017.8mb 56f 51f
11:42 9 10 mph 1017.7mb 56f 51f
11:36 6 9 mph 1017.7mb 56f 51f
11:30 7 10 mph 1017.7mb 56f 51f
11:24 7 9 mph 1017.7mb 56f 51f
11:18 7 9 mph 1017.7mb 56f 51f
11:12 7 8 mph 1017.6mb 56f 51f
11:06 6 9 mph 1017.7mb 56f 51f
11:00 5 9 mph 1017.6mb 56f 51f
10:54 7 11 mph 1017.6mb 56f 51f
10:48  -  mph 1017.6mb 56f 51f
10:42  -  mph 1017.6mb 57f 51f
10:36  -  mph 1017.5mb 57f 51f
10:30 10 14 mph 1017.6mb 57f 51f
10:24 11 15 mph 1017.6mb 57f 51f
10:18 11 16 mph 1017.6mb 57f 51f
10:12 13 18 mph 1017.6mb 58f 51f
10:06 13 17 mph 1017.5mb 58f 51f
10:00 14 16 mph 1017.5mb 59f 51f
9:54 13 16 mph 1017.6mb 59f 51f
9:48 14 17 mph 1017.6mb 59f 51f
9:42 14 20 mph 1017.5mb 60f 51f
9:36 16 21 mph 1017.4mb 59f 51f
9:30 17 21 mph 1017.4mb 59f 51f
9:24 17 21 mph 1017.3mb 60f 51f
9:18 15 17 mph 1017.3mb 60f 51f
9:12 16 23 mph 1017.3mb 60f 51f
9:06 15 21 mph 1017.3mb 60f 52f
9:00 13 18 mph 1017.3mb 60f 52f
8:54 10 14 mph 1017.4mb 60f 52f
8:48  -  mph 1017.4mb 60f 51f
8:42  -  mph 1017.4mb 60f 52f
8:36  -  mph 1017.3mb 60f 52f
8:30 10 14 mph 1017.3mb 60f 52f
8:24 11 16 mph 1017.2mb 60f 52f
8:18 11 17 mph 1017.1mb 60f 52f
8:12 11 17 mph 1017.1mb 60f 52f
8:06 15 18 mph 1017mb 60f 52f
8:00  -  mph 1017mb 60f -
7:54  -  mph 1017mb 60f -
7:48 9 13 mph 1017mb 60f -
7:42 9 15 mph 1017mb 60f -
7:36 11 18 mph 1016.9mb 60f -
7:30 15 18 mph 1016.8mb 60f 53f
7:24 13 18 mph 1016.8mb 60f 53f
7:18  -  mph 1016.8mb 61f 53f
7:12  -  mph 1016.8mb 61f 53f
7:06  -  mph 1016.8mb 61f 53f
7:00  -  mph 1016.8mb 61f 53f
6:54  -  mph 1016.8mb 61f 53f
6:48  -  mph 1016.8mb 61f -
6:42  -  mph 1016.8mb 61f -
6:36  -  mph 1017mb 61f -
6:30 14 20 mph 1016.9mb 61f -
6:24 16 21 mph 1016.8mb 61f -
6:18  -  mph 1016.8mb 61f 53f
6:12  -  mph 1016.8mb 61f 53f
6:06  -  mph 1016.9mb 61f 54f
6:00  -  mph 1016.9mb 61f -
5:54  -  mph 1016.9mb 61f -
5:48 16 20 mph 1016.9mb 62f -
5:42 13 18 mph 1016.9mb 62f -
5:36 18 23 mph 1016.8mb 62f -
5:30 15 20 mph 1016.9mb 62f -
5:24 16 21 mph 1016.9mb 62f -
5:18  -  mph 1016.9mb 62f 54f
5:12  -  mph 1016.9mb 61f 54f
5:06  -  mph 1016.9mb 61f 54f
5:00  -  mph 1016.9mb 61f 54f
4:54  -  mph 1017mb 61f 55f
4:48  -  mph - 61f -
4:42  -  mph - 62f -
4:36  -  mph - 61f -
4:30  -  mph 1017.1mb - -
4:24  -  mph 1017.2mb - -
4:18 11 15 mph 1017.2mb 61f -
4:12 11 16 mph 1017.3mb 61f -
4:06 14 16 mph 1017.3mb 61f -
4:00  -  mph 1017.3mb 61f -
3:54  -  mph 1017.3mb 61f -
3:48  -  mph - 60f -
3:42  -  mph - 60f -
3:30 11 16 mph 1017.4mb 60f 56f
3:24 9 13 mph 1017.4mb 60f 55f
3:18  -  mph 1017.5mb 60f 56f
3:12  -  mph 1017.6mb 60f 55f
3:06  -  mph 1017.7mb 60f 55f
3:00  -  mph 1017.7mb 60f 55f
2:54  -  mph 1017.7mb 60f 55f
2:48  -  mph 1017.8mb 60f 55f
2:42  -  mph 1017.7mb 59f 55f
2:36  -  mph 1017.8mb 59f 56f
2:30 10 16 mph 1017.8mb 59f 55f
2:24 13 14 mph 1017.8mb 59f 55f
2:18 14 15 mph 1017.9mb 59f 55f
2:12 14 17 mph 1017.9mb 59f 55f
2:06 14 17 mph 1017.8mb 59f 55f
2:00 11 16 mph 1017.9mb 59f 55f
1:54 15 16 mph 1017.8mb 59f 55f
1:48 14 16 mph 1017.9mb 59f 55f
1:42 15 17 mph 1018mb 59f 55f
1:36 13 17 mph 1018mb 59f 55f
1:30 15 17 mph 1018mb 59f 55f
1:24 16 18 mph 1018mb 58f 55f
1:18 13 18 mph 1018mb 58f 55f
1:12 15 21 mph 1018mb 58f 55f
1:06 11 16 mph 1018.1mb 57f 55f
1:00 13 15 mph 1018.1mb 58f 55f
12:54 14 17 mph 1018.1mb 58f 55f
12:48 14 18 mph 1018.2mb 58f 55f
12:42 16 18 mph 1018.2mb 57f 55f
12:36 13 17 mph 1018.2mb 57f 55f
12:30 13 15 mph 1018.2mb 57f 55f
12:24 11 15 mph 1018.3mb 57f 55f
12:18 10 14 mph 1018.4mb 58f 55f
12:12 10 14 mph 1018.4mb 57f 55f
12:06 11 13 mph 1018.5mb 56f 54f
12:00 9 14 mph 1018.5mb 56f 54f
11:54 10 15 mph 1018.6mb 56f 54f
11:48 9 14 mph 1018.6mb 56f 54f
11:42 11 16 mph 1018.6mb 56f 54f
11:36 11 17 mph 1018.6mb 56f 54f
11:30 14 17 mph 1018.5mb 56f 53f
11:24 11 16 mph 1018.6mb 56f 53f
11:18 11 16 mph 1018.6mb 57f 53f
11:12 14 15 mph 1018.7mb 57f 53f
11:06 10 15 mph 1018.8mb 58f 53f
11:00 14 18 mph 1018.8mb 58f 53f
10:54 15 17 mph 1018.7mb 58f 53f
10:48 13 17 mph 1018.7mb 58f 53f
10:42 15 17 mph 1018.7mb 58f 53f
10:36 14 18 mph 1018.7mb 58f 53f
10:30 15 18 mph 1018.7mb 58f 53f
10:24 15 20 mph 1018.7mb 58f 53f
10:18 15 20 mph 1018.7mb 58f 53f
10:12 16 21 mph 1018.8mb 58f 53f
10:06 14 17 mph 1018.8mb 58f 53f
10:00 17 20 mph 1018.8mb 58f 53f
9:54 14 20 mph 1018.8mb 58f 53f
9:48 15 20 mph 1018.8mb 58f 53f
9:42 15 20 mph 1018.8mb 58f 52f
9:36 17 22 mph 1018.8mb 58f 52f
9:30 16 21 mph 1018.8mb 58f 53f
9:24 18 24 mph 1018.8mb 58f 52f
9:18 20 22 mph 1018.9mb 58f 52f
9:12 20 23 mph 1018.8mb 58f 52f
9:06 16 18 mph 1018.9mb 58f 52f
9:00 16 22 mph 1019mb 58f 52f
8:54 15 20 mph 1019mb 58f 52f
8:48 16 18 mph 1019mb 58f 52f
8:42 14 16 mph 1019mb 58f 52f
8:36 11 16 mph 1019mb 58f 52f
8:30 15 18 mph 1019mb 58f 52f
8:24 14 17 mph 1019mb 58f 52f
8:18 14 18 mph 1019mb 58f 51f
8:12 16 20 mph 1018.9mb 58f 51f
8:06 15 18 mph 1018.9mb 59f 51f
8:00 15 20 mph 1018.9mb 59f 51f
7:54 15 20 mph 1018.8mb 59f 51f
7:48 14 16 mph 1018.9mb 58f -
7:42 10 14 mph 1018.9mb 58f -
7:36 14 17 mph 1018.9mb 58f -
7:30 13 16 mph 1019mb 59f 51f
7:24 11 15 mph 1019mb 59f 51f
7:18 10 13 mph 1019.1mb 59f 51f
7:12 10 14 mph 1019.2mb 59f 51f
7:06 8 13 mph 1019.2mb 59f 51f
7:00 9 14 mph 1019.1mb 59f 50f
6:54 11 16 mph 1019mb 59f 50f
6:48 10 14 mph - - -
6:42 8 11 mph - - -
6:36 7 9 mph - - -
6:30 7 10 mph 1019.4mb 59f 50f
6:24 8 14 mph 1019.3mb 59f 50f
6:18 10 20 mph 1019.1mb 59f 50f
6:12 14 17 mph 1019mb 59f 50f
6:06 16 18 mph 1018.9mb 59f 50f
6:00 13 18 mph 1018.8mb 59f 51f
5:54 13 20 mph 1018.8mb 59f 51f
5:48 13 18 mph 1018.8mb 59f 51f
5:42 9 13 mph 1018.9mb 59f 51f
5:36 10 15 mph 1019mb 59f 51f
5:30 11 17 mph 1019mb 59f 51f
5:24 14 16 mph 1019mb 59f 51f
5:18 14 21 mph 1019mb 59f 51f
5:12 13 17 mph 1019.1mb 59f 51f
5:06 13 17 mph 1019.2mb 59f 51f
5:00 11 17 mph 1019.3mb 58f 51f
4:54 8 11 mph 1019.4mb 58f 51f
4:48 9 14 mph 1019.4mb 58f 51f
4:42 9 11 mph 1019.5mb 58f 51f
4:36 8 11 mph 1019.6mb 58f 51f
4:30 8 10 mph 1019.6mb 58f 51f
4:24 8 10 mph 1019.6mb 58f 51f
4:18 9 13 mph 1019.6mb 58f 51f
4:12 11 15 mph 1019.6mb 58f 51f
4:06 14 17 mph 1019.6mb 58f 51f
4:00 13 17 mph 1019.7mb 58f 51f
3:54 11 15 mph 1019.7mb 58f 51f
3:48 9 15 mph 1019.7mb 58f 52f
3:42 14 16 mph 1019.7mb 58f 52f
3:36 13 16 mph 1019.7mb 58f 52f
3:30 11 15 mph 1019.8mb 58f 52f
3:24 10 14 mph 1019.8mb 58f 52f
3:18 10 16 mph 1019.9mb 58f 52f
3:12 13 18 mph 1019.9mb 58f 52f
3:06 14 17 mph 1020mb 58f 53f
3:00 11 15 mph 1019.9mb 58f 53f
2:54 11 17 mph 1019.9mb 58f 53f
2:48 10 17 mph 1019.8mb 58f 53f
2:42 13 18 mph 1019.8mb 58f 53f
2:36 14 16 mph 1019.9mb 58f 53f
2:30 15 21 mph 1019.9mb 58f 53f
2:24 11 14 mph 1020mb 58f 53f
2:18 10 15 mph 1020.1mb 58f 53f
2:12 8 16 mph 1020.1mb 58f 53f
2:06 10 13 mph 1020.3mb 58f 53f
2:00 10 14 mph 1020.4mb 58f 53f
1:54 10 14 mph 1020.4mb 58f 53f
1:48 13 16 mph 1020.4mb 58f 53f
1:42 13 17 mph 1020.3mb 58f 53f
1:36 13 18 mph 1020.3mb 58f 53f
1:30 10 14 mph 1020.3mb 58f 53f
1:24 13 17 mph 1020.3mb 58f 53f
1:18 11 16 mph 1020.3mb 58f 53f
1:12 14 17 mph 1020.3mb 58f 53f
1:06 14 16 mph 1020.3mb 58f 53f
1:00 10 14 mph 1020.4mb 58f 53f
12:54 9 17 mph 1020.5mb 58f 53f
12:48 14 22 mph 1020.5mb 58f 53f
12:42 9 14 mph 1020.6mb 58f 53f
12:36 9 15 mph 1020.6mb 58f 53f
12:30 9 14 mph 1020.6mb 58f 53f
12:24 9 14 mph 1020.6mb 58f 53f
12:18 8 14 mph 1020.6mb 58f 53f
12:12 6 10 mph 1020.6mb 58f 53f
12:06 6 9 mph 1020.6mb 58f 53f
12:00 7 10 mph 1020.6mb 58f 53f
Ter 05/03 11:54 9 16 mph 1020.7mb 58f 53f
11:48 9 17 mph 1020.6mb 59f 53f
11:42 11 21 mph 1020.6mb 58f 53f
11:36 10 16 mph 1020.6mb 58f 53f
11:30 13 17 mph 1020.6mb 58f 53f
11:24 13 20 mph 1020.7mb 58f 53f
11:18 10 13 mph 1020.7mb 59f 53f
11:12 11 17 mph 1020.7mb 59f 53f
11:06 10 17 mph 1020.6mb 59f 53f
11:00 13 20 mph 1020.6mb 58f 53f
10:54 10 15 mph 1020.6mb 58f 53f
10:48  -  mph 1020.5mb 58f 53f
10:42  -  mph 1020.6mb 58f 53f
10:36  -  mph 1020.6mb 58f 53f
10:30 11 14 mph 1020.7mb 58f 53f
10:24 8 15 mph 1020.8mb 58f 53f
10:18 9 14 mph 1020.8mb 59f 53f
10:12 10 14 mph 1020.7mb 59f 53f
10:06 10 15 mph 1020.7mb 59f 54f
10:00 11 16 mph 1020.6mb 59f 54f
9:54 10 16 mph 1020.7mb 59f 54f
9:48 10 15 mph 1020.8mb 59f 54f
9:42 9 15 mph 1020.8mb 59f 54f
9:36 9 13 mph 1020.8mb 59f 54f
9:30 11 15 mph 1020.8mb 59f 54f
9:24 8 9 mph 1020.9mb 60f 54f
9:18 8 10 mph 1020.8mb 60f 54f
9:12 6 9 mph 1020.8mb 60f 54f
9:06 7 10 mph 1020.7mb 60f 54f
9:00 7 10 mph 1020.6mb 60f 54f
8:54 8 13 mph 1020.6mb 60f 54f
8:48  -  mph 1020.5mb 61f 54f
8:42  -  mph 1020.5mb 61f 54f
8:36  -  mph 1020.5mb 61f 54f
8:30 11 16 mph 1020.5mb 61f 54f
8:24 10 14 mph 1020.4mb 61f 54f
8:18 13 18 mph 1020.4mb 61f 54f
8:12 11 15 mph 1020.2mb 61f 54f
8:06 11 16 mph 1020.1mb 60f 54f
8:00 14 18 mph 1020mb 60f 54f
7:54 13 18 mph 1020mb 60f 54f
7:48  -  mph 1019.9mb 60f 55f
7:42  -  mph 1019.8mb 60f 54f
7:36  -  mph 1019.7mb 60f 55f
7:30  -  mph 1019.7mb 60f 55f
7:24  -  mph 1019.6mb 62f 55f
7:18  -  mph 1019.7mb 62f 55f
7:12  -  mph 1019.5mb 61f 55f
7:06  -  mph 1019.3mb 61f 55f
7:00  -  mph 1019.5mb 62f 55f
6:54  -  mph 1019.6mb 62f 55f
6:48  -  mph 1019.7mb 62f 55f
6:42  -  mph 1019.8mb 62f 55f
6:36  -  mph 1020mb 62f 55f
6:30 14 18 mph 1019.9mb 61f 55f
6:24 10 16 mph 1019.8mb 62f 56f
6:18  -  mph 1019.6mb 61f 56f
6:12  -  mph 1019.3mb 62f 56f
6:06  -  mph 1019.3mb 62f 56f
6:00  -  mph 1019.4mb 62f 56f
5:54  -  mph 1019.4mb 62f 56f
5:48  -  mph 1019.4mb 62f 56f
5:42  -  mph 1019.6mb 62f 56f
5:36  -  mph 1019.6mb 62f 57f
5:30 15 18 mph 1019.6mb 62f -
5:24 16 20 mph 1019.5mb 62f -
5:18  -  mph 1019.5mb 62f 57f
5:12  -  mph 1019.5mb 62f 57f
5:06  -  mph 1019.6mb 63f 57f
5:00  -  mph 1019.6mb 63f -
4:54  -  mph 1019.5mb 63f -
4:48  -  mph 1019.6mb 62f -
4:42  -  mph 1019.6mb 63f -
4:36  -  mph 1019.5mb 62f -
4:30  -  mph 1019.4mb 62f -
4:24  -  mph 1019.3mb 62f -
4:18  -  mph 1019.4mb 63f 58f
4:12  -  mph 1019.4mb 62f 58f
4:06  -  mph 1019.4mb 62f 58f
4:00  -  mph 1019.3mb 62f 58f
3:54  -  mph 1019.3mb 62f 59f
3:48  -  mph 1019.2mb 62f 59f
3:42  -  mph 1019.2mb 62f 60f
3:36  -  mph 1019.3mb 62f 60f
3:30 7 10 mph 1019.4mb 62f 60f
3:24 9 11 mph 1019.5mb 62f 60f
3:18  -  mph 1019.5mb 61f 60f
3:12  -  mph 1019.5mb 61f 59f
3:06  -  mph 1019.5mb 60f 59f
3:00  -  mph 1019.6mb 61f 59f
2:54  -  mph 1019.6mb 60f 59f
2:48  -  mph 1019.6mb 60f 59f
2:42  -  mph 1019.6mb 60f 59f
2:36  -  mph 1019.6mb 60f 59f
2:30 9 11 mph 1019.6mb 60f 59f
2:24 8 13 mph 1019.6mb 60f 59f
2:18 6 8 mph 1019.6mb 60f 59f
2:12 7 10 mph 1019.6mb 60f 59f
2:06 8 10 mph 1019.6mb 59f 59f
2:00 8 10 mph 1019.6mb 59f 59f
1:54 7 9 mph 1019.5mb 59f 58f
1:48 8 10 mph 1019.5mb 59f 58f
1:42 8 9 mph 1019.5mb 59f 58f
1:36 9 13 mph 1019.5mb 59f 57f
1:30 9 10 mph 1019.6mb - -
1:24 9 10 mph 1019.6mb - -
1:18 9 10 mph 1019.6mb 59f 57f
1:12 9 13 mph 1019.6mb 59f 57f
1:06 8 10 mph 1019.6mb 59f 57f
1:00 9 11 mph 1019.6mb 59f 57f
12:54 9 11 mph 1019.6mb 59f 57f
12:48 8 10 mph 1019.6mb 58f 57f
12:42 9 10 mph 1019.6mb 58f 57f
12:36 7 9 mph 1019.6mb 58f 57f
12:30 6 8 mph 1019.5mb 58f 57f
12:24 6 9 mph 1019.4mb 58f 57f
12:18 6 9 mph 1019.4mb 58f 57f
12:12 7 10 mph 1019.5mb 58f 57f
12:06 7 8 mph 1019.5mb 58f 57f
12:00 6 8 mph 1019.5mb 58f 57f
11:54 5 6 mph 1019.4mb 58f 57f
11:48 5 6 mph 1019.3mb 58f 57f
11:42 5 6 mph 1019.4mb 58f 58f
11:36 3 6 mph 1019.3mb 58f 57f
11:30 5 6 mph 1019.3mb 58f 57f
11:24 5 7 mph 1019.3mb 58f 57f
11:18 5 6 mph 1019.2mb 58f 57f
11:12 6 7 mph 1019.2mb 58f 57f
11:06 6 7 mph 1019.1mb 58f 57f
11:00 6 8 mph 1019.1mb 58f 57f
10:54 7 9 mph 1019.1mb 58f 57f
10:48 7 10 mph 1019mb 58f 58f
10:42 6 9 mph 1019mb 58f 58f
10:36 7 9 mph 1018.9mb 58f 58f
10:30 6 8 mph 1018.8mb 58f 58f
10:24 6 8 mph 1018.8mb 58f 58f
10:18 6 8 mph 1018.8mb 58f 58f
10:12 7 9 mph 1018.7mb 58f 58f
10:06 7 10 mph 1018.7mb 58f 58f
10:00 7 10 mph 1018.6mb 58f 57f
9:54 6 8 mph 1018.6mb 58f 57f
9:48 6 8 mph 1018.5mb 58f 58f
9:42 7 9 mph 1018.5mb 58f 57f
9:36 6 9 mph 1018.6mb 58f 57f
9:30 6 9 mph 1018.5mb 58f 57f
9:24 7 10 mph 1018.6mb 58f 57f
9:18 8 10 mph 1018.5mb 58f 57f
9:12 8 10 mph 1018.5mb 58f 57f
9:06 7 10 mph 1018.4mb 58f 57f
9:00 7 9 mph 1018.3mb 58f 57f
8:54 7 10 mph 1018.2mb 58f 57f
8:48 7 10 mph 1018.2mb 58f 57f
8:42 8 13 mph 1018.1mb 58f 57f
8:36 8 13 mph 1018.1mb 58f 57f
8:30 10 14 mph 1018mb 58f 57f
8:24 10 14 mph 1017.9mb 59f 57f
8:18 8 11 mph 1017.8mb 59f 57f
8:12 7 11 mph 1017.8mb 59f 56f
8:06 7 10 mph 1017.7mb 59f 57f
8:00 8 10 mph 1017.7mb 59f 56f
7:54 6 8 mph 1017.7mb 59f 56f
7:48 6 9 mph 1017.7mb - -
7:42 7 9 mph 1017.7mb - -
7:36 8 11 mph 1017.8mb - -
7:30 7 11 mph 1017.7mb 59f -
7:24 7 11 mph 1017.7mb 60f -
7:18 9 13 mph 1017.7mb 60f 56f
7:12 6 8 mph 1017.7mb 59f 57f
7:06 7 8 mph 1017.6mb 60f 57f
7:00 6 7 mph 1017.6mb 60f 57f
6:54 3 5 mph 1017.4mb 60f 56f
6:48  -  2 mph 1017.2mb 60f 56f
6:42 1 2 mph 1017.3mb 60f 56f
6:36  -  5 mph 1017mb 60f 56f
6:30 3 5 mph 1017.3mb 61f 56f
6:24 1 2 mph 1017.1mb 61f 56f
6:18  -  1 mph 1017.2mb 61f 56f
6:12 1 2 mph 1017.3mb 60f 56f
6:06  -  1 mph 1017.3mb 60f 56f
6:00  -  3 mph 1017.3mb 61f 56f
5:54 2 3 mph 1017.4mb 60f 56f
5:48 2 3 mph 1017.4mb 62f 56f
5:42 3 5 mph 1017.4mb 61f 56f
5:36 3 5 mph 1017.3mb 62f 56f
5:30 3 6 mph 1017.2mb 62f 56f
5:24 2 5 mph 1017.3mb 62f 56f
5:18 1 2 mph 1017.3mb 62f 56f
5:12 1 2 mph 1017.4mb 62f 56f
5:06 2
mph
1017.4mb 62f 56f
5:00  -  1 mph 1017.3mb 62f 56f
4:54 1 2 mph 1017.3mb 62f 56f
4:48 1 2 mph 1017.2mb 62f 56f
4:42  -  3 mph 1017.3mb 61f 56f
4:36 3 6 mph 1017.2mb 61f 56f
4:30 6
mph
1017.1mb 61f 56f
4:24 6 7 mph 1017.1mb 61f 56f
4:18 6 7 mph 1017.3mb 61f 56f
4:12 5 6 mph 1017.4mb 60f 56f
4:06 5 6 mph 1017.5mb 60f 56f
4:00 2 3 mph 1017.8mb 60f 56f
3:54 2 5 mph 1017.9mb 60f 56f
3:48 3 7 mph 1017.9mb 60f 56f
3:42 6 7 mph 1017.7mb 60f 56f
3:36 3 7 mph 1017.6mb 60f 56f
3:30 6 7 mph 1017.4mb 60f 56f
3:24 6 7 mph 1017.4mb 59f 56f
3:18 3 5 mph 1017.4mb 58f 56f
3:12 5 6 mph 1017.4mb 58f 56f
3:06 6 8 mph 1017.2mb 59f 56f
3:00 5 6 mph 1017.2mb 58f 56f
2:54 5 6 mph 1017.4mb 58f 56f
2:48 6 9 mph 1017.2mb 59f 57f
2:42 6 8 mph 1017.1mb 59f 57f
2:36 6 8 mph 1017.1mb 58f 57f
2:30 7 8 mph 1017mb 58f 57f
2:24 6 7 mph 1017.5mb 58f 57f
2:18 5 8 mph 1017.6mb 58f 57f
2:12 6 8 mph 1017.7mb 58f 57f
2:06 5 8 mph 1017.7mb 58f 57f
2:00 6 8 mph 1017.6mb 58f 57f
1:54 6 9 mph 1017.6mb 58f 57f
1:48 7 10 mph 1017.7mb 58f 57f
1:42 6 10 mph 1017.6mb 58f 57f
1:36 6 9 mph 1017.7mb 58f 57f
1:30 6 9 mph 1017.7mb 58f 57f
1:24 6 9 mph 1017.4mb 58f 57f
1:18 7 8 mph 1017.3mb 58f 57f
1:12 6 8 mph 1017.1mb 58f 57f
1:06 5 7 mph 1017.2mb 58f 57f
1:00 6 7 mph 1017.3mb 58f 57f
12:54 6 9 mph 1016.9mb 58f 56f
12:48 7 10 mph 1017.1mb 58f 56f
12:42 8 10 mph 1016.9mb 58f 56f
12:36 7 10 mph 1017.2mb 57f 56f
12:30 9 14 mph 1017.2mb 58f 56f
12:24 9 13 mph 1017.1mb 58f 56f
12:18 9 13 mph 1017.1mb 58f 56f
12:12 10 13 mph 1017.1mb 58f 56f
12:06 11 13 mph 1017.1mb 57f 57f
12:00 9 11 mph 1017mb 57f 57f
Seg 05/02 11:54 9 11 mph 1016.9mb 57f 57f
11:48 8 13 mph 1016.8mb 57f 57f
11:42 7 10 mph 1016.9mb 57f 57f
11:36 7 10 mph 1016.8mb 57f 57f
11:30 7 8 mph 1016.6mb 57f 57f
11:24 6 7 mph 1016.4mb 57f 56f
11:18 6 8 mph 1016.4mb 57f 56f
11:12 6 8 mph 1016.4mb 57f 56f
11:06 5 6 mph 1016.3mb 57f 56f
11:00 5
mph
1016.3mb 57f 56f
10:54 2 3 mph 1015.8mb 57f 56f
10:48 1 2 mph 1015.8mb 57f 56f
10:42  -  3 mph 1016.1mb 57f 56f
10:36 2 3 mph 1016.1mb 57f 56f
10:30  -  2 mph 1016mb 57f 56f
10:24 1 2 mph 1016mb 57f 56f
10:18 2 3 mph 1016mb 57f 56f
10:12 2 5 mph 1016mb 57f 56f
10:06 3 5 mph 1016mb 57f 56f
10:00  -  3 mph 1015.9mb 57f 56f
9:54 3 5 mph 1015.8mb 57f 56f
9:48 3 5 mph 1015.9mb 57f 57f
9:42 1 3 mph 1016mb 57f 57f
9:36 3 6 mph 1016mb 57f 57f
9:30 1 5 mph 1015.9mb 57f 57f
9:24 5
mph
1015.5mb 57f 57f
9:18 2 3 mph 1015.7mb 57f 57f
9:12 2 5 mph 1015.8mb 57f 57f
9:06 3 5 mph 1015.8mb 57f 57f
9:00 2 3 mph 1015.9mb 57f 57f
8:54 2 7 mph 1015.7mb 57f 57f
8:48 5 6 mph 1015.5mb 57f 57f
8:42 5 6 mph 1015.6mb 58f 57f
8:36 3 5 mph 1015.4mb 58f 57f
8:30 3 6 mph 1015.4mb 58f 57f
8:24 5 7 mph 1015.5mb 58f 57f
8:18 6 7 mph 1015.4mb 58f 57f
8:12 6 7 mph 1015.3mb 58f 57f
8:06 3 8 mph 1015.3mb 58f 57f
8:00 6 8 mph 1015.2mb 58f 57f
7:54 6 8 mph 1015.3mb 59f 57f
7:48 5 7 mph 1015.3mb 59f 58f
7:42  -  mph 1015.2mb 59f -
7:36  -  mph 1015.1mb 60f -
7:30 7 8 mph 1015.1mb 61f 58f
7:24 6 7 mph 1015.2mb 61f 58f
7:18  -  mph 1015.1mb 61f 58f
7:12  -  mph 1014.9mb 62f 58f
7:06  -  mph 1015mb 62f 58f
7:00  -  mph 1015.1mb 63f 58f
6:54  -  mph 1015.2mb 61f 58f
6:48  -  mph 1015.3mb 63f 59f
6:42 7 9 mph 1015.1mb 63f -
6:36 7 9 mph 1015.1mb 61f -
6:30 6 8 mph 1015.1mb 64f -
6:24 7 10 mph 1015.1mb 62f -
6:18  -  mph 1015mb 63f 59f
6:12  -  mph 1014.9mb 63f 59f
6:06  -  mph 1014.9mb 62f 60f
6:00  -  mph 1014.9mb 63f 60f
5:54  -  mph 1015.1mb 63f 60f
5:48 9 10 mph 1015.1mb 63f -
5:42 9 13 mph 1015.1mb 63f -
5:36 8 10 mph 1015.1mb 64f -
5:30 8 10 mph 1015.1mb 65f 61f
5:24 8 11 mph 1015.2mb 65f 61f
5:18  -  mph 1015.2mb 65f 62f
5:12  -  mph 1015.2mb 65f 62f
5:06  -  mph 1015.2mb 65f 61f
5:00  -  mph 1015.2mb 65f 61f
4:54  -  mph 1015.2mb 65f 62f
4:48  -  mph 1015.1mb - -
4:42  -  mph 1015.2mb - -
4:36  -  mph 1015.1mb - -
4:30  -  mph - 65f -
4:24  -  mph - 65f -
4:18 9 14 mph 1015.1mb 66f -
4:12 9 15 mph 1015.1mb 66f -
4:06 10 15 mph 1015.2mb 65f -
4:00 10 14 mph 1015.2mb 65f 64f
3:54 10 16 mph 1015.2mb 65f 64f
3:48  -  mph 1015.1mb - -
3:42  -  mph 1015.2mb - -
3:36  -  mph 1015.2mb - -
3:30  -  mph 1015.1mb 65f -
3:24  -  mph 1015.1mb 65f -
3:18  -  mph 1015.1mb 66f 63f
3:12  -  mph 1015.2mb 65f 63f
3:06  -  mph 1015.2mb 66f 63f
3:00  -  mph 1015.2mb 65f 63f
2:54  -  mph 1015.3mb 64f 63f
2:48  -  mph 1015.2mb 66f -
2:42  -  mph 1015.2mb 65f -
2:36  -  mph 1015.3mb 65f -
2:30 10 15 mph 1015.2mb 64f 64f
2:24 11 16 mph 1015.2mb 64f 64f
2:18 9 13 mph 1015.2mb 64f 63f
2:12 11 14 mph 1015.2mb 64f 63f
2:06 10 14 mph 1015.1mb 64f 64f
2:00 10 15 mph 1015.1mb 64f 64f
1:54 8 11 mph 1015.1mb 63f 64f
1:48 10 14 mph 1015mb 63f 64f
1:42 10 15 mph 1014.9mb 63f 65f
1:36 10 13 mph 1014.9mb 63f 66f
1:30 9 14 mph 1014.9mb 63f 65f
1:24 8 11 mph 1014.9mb 62f 66f
1:18 9 15 mph 1014.9mb 62f 68f
1:12 7 9 mph 1014.8mb 62f 68f
1:06 7 10 mph 1014.8mb 62f 69f
1:00 6 9 mph 1014.7mb 61f 69f
12:54 6 11 mph 1014.7mb 62f 68f
12:48 6 9 mph 1014.6mb 61f 67f
12:42 6 9 mph 1014.7mb 61f 67f
12:36 6 8 mph 1014.7mb 61f 67f
12:30 7 9 mph 1014.6mb 61f 67f
12:24 8 10 mph 1014.7mb 60f 67f
12:18 6 9 mph 1014.7mb 61f 66f
12:12 7 11 mph 1014.7mb 59f 66f
12:06 9 11 mph 1014.7mb 60f 65f
12:00 7 13 mph 1014.6mb 60f 65f
11:54 11 14 mph 1014.5mb 60f 65f
11:48 11 14 mph 1014.5mb 60f 65f
11:42 6 9 mph 1014.4mb 60f 66f
11:36 9 13 mph 1014.3mb 59f 66f
11:30 9 11 mph 1014.3mb 59f 67f
11:24 9 14 mph 1014.3mb 59f 66f
11:18 9 13 mph 1014.2mb 59f 67f
11:12 10 11 mph 1014.1mb 59f 66f
11:06 9 13 mph 1014.1mb 58f 66f
11:00 8 11 mph 1014.1mb 58f 67f
10:54 8 10 mph 1014.1mb 59f 67f
10:48 7 11 mph 1014.1mb 58f 67f
10:42 9 14 mph 1014mb 58f 65f
10:36 11 15 mph 1014mb 58f 64f
10:30 3 8 mph 1013.9mb 57f 69f
10:24 7 10 mph 1013.7mb 57f 70f
10:18 9 10 mph 1013.6mb 57f 69f
10:12 9 10 mph 1013.5mb 57f 69f
10:06 10
mph
1013.5mb 56f 69f
10:00 10 11 mph 1013.4mb 56f 69f
9:54 9 10 mph 1013.5mb 56f 67f
9:48 9
mph
1013.5mb 56f 66f
9:42 8 11 mph 1013.5mb 56f 65f
9:36 10 13 mph 1013.5mb 56f 66f
9:30 10 11 mph 1013.5mb 56f 64f
9:24 11
mph
1013.4mb 56f 64f
9:18 10 11 mph 1013.4mb 56f 64f
9:12 10 11 mph 1013.4mb 56f 63f
9:06 11
mph
1013.5mb 56f 63f
9:00 11
mph
1013.5mb 56f 63f
8:54 10 11 mph 1013.4mb 56f 63f
8:48 10
mph
1013.5mb 57f 63f
8:42 9 10 mph 1013.4mb 57f 62f
8:36 9 11 mph 1013.4mb 57f 63f
8:30 10 13 mph 1013.4mb 57f 63f
8:24 10 11 mph 1013.3mb 57f 61f
8:18 9 10 mph 1013.2mb 57f 60f
8:12 10 11 mph 1013.1mb 57f 62f
8:06 10 11 mph 1013.1mb 57f 61f
8:00 11
mph
1013mb 57f 61f
7:54 13
mph
1012.9mb 57f 61f
7:48 11 13 mph 1012.9mb 57f 61f
7:42 10 11 mph 1013mb 57f 60f
7:36 11
mph
1013mb 57f 61f
7:30 10 11 mph 1013mb 57f 61f
7:24 10 11 mph 1013mb 57f 60f
7:18 8 9 mph 1013mb 57f 60f
7:12 8 9 mph 1012.9mb 58f 61f
7:06 10 11 mph 1012.8mb 57f 61f
7:00 11
mph
1012.7mb 58f 60f
6:54 9 10 mph 1012.8mb 58f 60f
6:48 9 11 mph 1012.7mb 58f -
6:42 11 14 mph 1012.7mb 58f -
6:36 13 14 mph 1012.6mb 59f -
6:30 11 15 mph 1012.5mb 59f 59f
6:24 14
mph
1012.4mb 60f 59f
6:18 14
mph
1012.4mb 60f 58f
6:12 13 14 mph 1012.4mb 60f 58f
6:06 14
mph
1012.5mb 60f 58f
6:00 11 13 mph 1012.5mb 60f 58f
5:54 13 14 mph 1012.5mb 60f 59f
5:48 11 14 mph 1012.4mb 60f 59f
5:42 11 13 mph 1012.4mb 60f 59f
5:36 11 13 mph 1012.4mb 60f 59f
5:30 11 13 mph 1012.4mb 60f 59f
5:24 10 11 mph 1012.5mb 60f 59f
5:18 10 13 mph 1012.5mb 60f 58f
5:12 11 14 mph 1012.5mb 60f 59f
5:06 13 14 mph 1012.5mb 60f 60f
5:00 10 11 mph 1012.6mb 60f 58f
4:54 6
mph
1012.6mb 60f 58f
4:48 5 8 mph 1012.6mb 60f 58f
4:42 8 10 mph 1012.6mb 60f 60f
4:36 8 9 mph 1012.6mb 60f 61f
4:30 7 9 mph 1012.6mb 60f 60f
4:24 8 13 mph 1012.6mb 60f 60f
4:18 10 13 mph 1012.5mb 60f 62f
4:12 11 13 mph 1012.5mb 60f 63f
4:06 10 11 mph 1012.5mb 60f 62f
4:00 10 11 mph 1012.5mb 60f 62f
3:54 10 11 mph 1012.6mb 61f 62f
3:48 10 11 mph 1012.6mb 62f 61f
3:42 10
mph
1012.6mb 62f 61f
3:36 10 11 mph 1012.5mb 62f 61f
3:30 10 13 mph 1012.4mb 62f 61f
3:24 11 13 mph 1012.4mb 62f 61f
3:18 11 13 mph 1012.4mb 61f 61f
3:12 11 13 mph 1012.3mb 61f 62f
3:06 11 13 mph 1012.3mb 61f 62f
3:00 11
mph
1012.3mb 61f 62f
2:54 11 13 mph 1012.3mb 60f 63f
2:48 11 13 mph 1012.3mb 60f 63f
2:42 11 13 mph 1012.4mb 60f 63f
2:36 10 11 mph 1012.3mb 60f 62f
2:30 11 13 mph 1012.3mb 60f 62f
2:24 11 13 mph 1012.4mb 60f 62f
2:18 11
mph
1012.4mb 60f 62f
2:12 11
mph
1012.4mb 60f 62f
2:06 11
mph
1012.4mb 60f 62f
2:00 11 13 mph 1012.3mb 60f 62f
1:54 10 11 mph 1012.3mb 60f 62f
1:48 10 13 mph 1012.3mb 60f 62f
1:42 10 11 mph 1012.3mb 60f 62f
1:36 10
mph
1012.3mb 60f 63f
1:30 10 11 mph 1012.3mb 60f 63f
1:24 10 11 mph 1012.4mb 60f 63f
1:18 10 13 mph 1012.4mb 60f 63f
1:12 10 11 mph 1012.4mb 60f 62f
1:06 9 10 mph 1012.4mb 60f 62f
1:00 8 9 mph 1012.4mb 61f 63f
12:54 9
mph
1012.4mb 61f 64f
12:48 10
mph
1012.3mb 61f 64f
12:42 10 11 mph 1012.3mb 62f 64f
12:36 11
mph
1012.3mb 61f 65f
12:30 10
mph
1012.3mb 61f 65f
12:24 8 9 mph 1012.4mb 60f 64f
12:18 9
mph
1012.3mb 61f 65f
12:12 9 10 mph 1012.3mb 58f 64f
12:06 10
mph
1012.3mb 60f 64f
12:00 10 11 mph 1012.3mb 60f 65f
Dom 05/01 11:54 10 11 mph 1012.3mb 59f 66f
11:48 10
mph
1012.3mb - -
11:42 9 10 mph 1012.3mb - -
11:36 10 13 mph 1012.2mb - -
11:30 10 13 mph 1012.2mb 58f 67f
11:24 11
mph
1012.3mb 58f 67f
11:18 10 13 mph 1012.3mb 57f 67f
11:12 11 13 mph 1012.4mb 57f 69f
11:06 10 13 mph 1012.4mb 57f 69f
11:00 10 11 mph 1012.4mb 58f 70f
10:54 10
mph
1012.5mb 56f 70f
10:48 9 10 mph - - -
10:42 9 13 mph - - -
10:36 11 14 mph - - -
10:30 14
mph
1012.4mb 57f 70f
10:24 13 15 mph 1012.4mb 56f 69f
10:18 13 15 mph 1012.5mb 56f 70f
10:12 13 14 mph 1012.5mb 56f 69f
10:06 11 14 mph 1012.4mb 56f 69f
10:00 11 13 mph 1012.4mb 56f 68f
9:54 10
mph
1012.4mb 56f 66f
9:48 8 9 mph 1012.5mb 56f 64f
9:42 9 10 mph 1012.5mb 56f 65f
9:36 9 13 mph 1012.5mb 56f 66f
9:30 11 14 mph 1012.4mb 56f 68f
9:24 11 14 mph 1012.4mb 56f 69f
9:18 11 13 mph 1012.4mb 56f 70f
9:12 11 13 mph 1012.4mb 56f 72f
9:06 11 13 mph 1012.4mb 56f 72f
9:00 11
mph
1012.5mb 56f 71f
8:54 11 13 mph 1012.4mb 56f 71f
8:48 10 11 mph 1012.4mb 56f 71f
8:42 9 11 mph 1012.4mb 56f 69f
8:36 11
mph
1012.4mb 56f 70f
8:30 10
mph
1012.4mb 56f 69f
8:24 10 13 mph 1012.3mb 56f 69f
8:18 11 13 mph 1012.2mb 56f 70f
8:12 10 13 mph 1012.2mb 57f 70f
8:06 11 13 mph 1012.2mb 57f 72f
8:00  -  mph 1012.2mb 57f 73f
7:54  -  mph 1012.2mb 57f 74f
7:48  -  mph 1012.2mb 57f -
7:42  -  mph 1012.2mb 57f -
7:36  -  mph 1012.2mb 57f -
7:30  -  mph 1012.3mb 58f -
7:24  -  mph 1012.3mb 58f -
7:18  -  mph 1012.2mb 58f -
7:12  -  mph 1012.3mb 58f -
7:06  -  mph 1012.2mb 58f -
7:00 11 13 mph 1012.3mb 58f 73f
6:54 9 10 mph 1012.4mb 58f 74f
6:48  -  mph 1012.3mb 58f -
6:42  -  mph 1012.4mb 58f -
6:36  -  mph 1012.4mb 58f -
6:30  -  mph - 58f -
6:24  -  mph - 60f -
6:18 11
mph
1012.5mb 60f 78f
6:12 11 15 mph 1012.6mb 60f 78f
6:06 10 11 mph 1012.7mb 60f 76f
6:00  -  mph 1012.7mb 63f 76f
5:54  -  mph 1012.8mb 61f 77f
5:48  -  mph 1012.9mb 62f 75f
5:42  -  mph 1012.9mb 64f 75f
5:36  -  mph 1012.9mb 64f 76f
5:30 9 14 mph 1013mb 63f -
5:24 9 10 mph 1013.2mb 63f -
5:18  -  mph - 64f -
5:12  -  mph - 64f -
5:06  -  mph - 63f -
5:00  -  mph - 63f -
4:54  -  mph - 64f -
4:48  -  mph 1013.6mb - -
4:42  -  mph 1013.7mb - -
4:36  -  mph 1013.9mb - -
4:30 9 11 mph 1013.9mb 64f 77f
4:24 8 10 mph 1014.1mb 64f 77f
4:18 8 14 mph 1014.1mb 63f -
4:12 10 11 mph 1014.2mb 64f -
4:06 9 11 mph 1014.3mb 64f -
4:00  -  mph 1014.3mb 64f 77f
3:54  -  mph 1014.4mb 64f 76f
3:48  -  mph 1014.5mb - -
3:42  -  mph 1014.6mb - -
3:36  -  mph 1014.7mb - -
3:30  -  mph 1014.7mb 64f 76f
3:24  -  mph 1014.8mb 64f 76f
3:18 13 14 mph 1014.9mb 64f -
3:12 9 13 mph 1015mb 64f -
3:06 15 16 mph 1015.1mb 64f -
3:00 14 16 mph 1015.2mb 64f 76f
2:54 9 10 mph 1015.3mb 64f 75f
2:48  -  mph 1015.4mb 64f -
2:42  -  mph 1015.5mb 64f -
2:36  -  mph 1015.6mb 64f -
2:30 7
mph
1015.7mb 65f 74f
2:24 6 8 mph 1015.8mb 66f 75f
2:18 6 8 mph 1015.8mb 66f 75f
2:12 8 10 mph 1016mb 65f 74f
2:06 10 13 mph 1016mb 64f 74f
2:00 7 9 mph 1016.2mb 64f 74f
1:54 7 9 mph 1016.2mb 64f 74f
1:48 8 9 mph 1016.2mb 63f 74f
1:42 8 14 mph 1016.3mb 63f 74f
1:36 10 13 mph 1016.3mb 63f 73f
1:30 8 10 mph 1016.5mb 63f 73f
1:24 7 8 mph 1016.6mb 62f 71f
1:18 7 8 mph 1016.6mb 62f 71f
1:12 7 9 mph 1016.7mb 62f 72f
1:06 9 11 mph 1016.8mb 61f 72f
1:00 9 11 mph 1016.9mb 60f 71f
12:54 10 11 mph 1017.1mb 59f 70f
12:48 9 10 mph 1017.1mb 60f 69f
12:42 7 9 mph 1017.3mb 60f 69f
12:36 7 8 mph 1017.4mb 60f 70f
12:30 6 7 mph 1017.5mb 58f 70f
12:24 6
mph
1017.6mb 58f 69f
12:18 5 6 mph 1017.8mb 59f 69f
12:12 5 7 mph 1017.9mb 59f 69f
12:06 7 8 mph 1018mb 59f 68f
12:00 7 8 mph 1018.1mb 59f 67f
11:54 6
mph
1018.3mb 59f 66f
11:48 6
mph
1018.4mb 59f 66f
11:42 6
mph
1018.5mb 58f 66f
11:36 6
mph
1018.6mb 58f 66f
11:30 6 7 mph 1018.7mb 58f 65f
11:24 7 8 mph 1018.8mb 58f 65f
11:18 7 10 mph 1018.9mb 58f 64f
11:12 9
mph
1019mb 58f 64f
11:06 9 11 mph 1019.1mb 58f 64f
11:00 8 9 mph 1019.2mb 58f 64f
10:54 8 9 mph 1019.3mb 58f 63f
10:48 7 9 mph 1019.4mb 58f 62f
10:42 8 10 mph 1019.5mb 58f 62f
10:36 10 13 mph 1019.5mb 58f 62f
10:30 11
mph
1019.5mb 57f 62f
10:24 10 13 mph 1019.6mb 57f 61f
10:18 11 13 mph 1019.7mb 58f 61f
10:12 8 10 mph 1019.8mb 57f 60f
10:06 10 11 mph 1019.8mb 57f 61f
10:00 9 10 mph 1020mb 57f 60f
9:54 8 9 mph 1020.2mb 57f 60f